Albany, Oregon
Current Conditions -  °F | °C
As of 4:55 PM on Tuesday 21 Oct 2014 (Local Time) from KCVO Reporting Station
Overcast Overcast  
Wind Chill: 61°   Ceiling: 6000
Heat Index: 61°   Visibility: 10mi
Dew Point: 52°   Wind: 3mph
Humidity: 72%   Direction: 170°S
Pressure: 29.97"   Gusts: NA
Location:  44.64°N, 123.1°W
Report Text: KCVO 212355Z AUTO 17003KT 10SM OVC060 16/11 A2997 RMK AO1 10170 20140 401700110 57014
Loading
Personal Weather Stations






























Interactive Weather Map
Tropical Storm Tracking
New forecast layout! Learn more

10-Day Weather Forecast

Advertisements
Track Severe Weather on mobile